Time;durP1;ratioP1;P1;durP2;ratioP2;P2;SDS_P1;SDS_P2;PMS_P1;PMS_P2;Temp;Humidity;BMP_temperature;BMP_pressure;BME280_temperature;BME280_humidity;BME280_pressure;Samples;Min_cycle;Max_cycle;Signal;HPM_P1;HPM_P2
2023/10/02 00:01:17;;;;;;;0.35;0.22;;;;;;;;;;4978836;28;20173;-72
2023/10/02 00:03:48;;;;;;;0.20;0.20;;;;;;;;;;4979065;28;20054;-71
2023/10/02 00:06:16;;;;;;;0.32;0.32;;;;;;;;;;4977246;28;20582;-72
2023/10/02 00:08:51;;;;;;;0.60;0.20;;;;;;;;;;4984312;28;20129;-72
2023/10/02 00:11:36;;;;;;;0.10;0.10;;;;;;;;;;4973171;28;20393;-71
2023/10/02 00:14:27;;;;;;;0.10;0.10;;;;;;;;;;4975269;28;20062;-71
2023/10/02 00:16:59;;;;;;;0.13;0.13;;;;;;;;;;4976939;28;20489;-72
2023/10/02 00:19:36;;;;;;;0.73;0.73;;;;;;;;;;4974215;28;20094;-71
2023/10/02 00:22:38;;;;;;;6.68;6.32;;;;;;;;;;4978267;28;20082;-72
2023/10/02 00:25:07;;;;;;;1.10;0.25;;;;;;;;;;4971921;28;20543;-72
2023/10/02 00:27:35;;;;;;;6.30;5.93;;;;;;;;;;4981920;28;20559;-71
2023/10/02 00:30:07;;;;;;;0.03;0.03;;;;;;;;;;4981427;28;20381;-72
2023/10/02 00:32:35;;;;;;;;;;;;;;;;;;4975042;28;20046;-71
2023/10/02 00:35:03;;;;;;;0.55;0.55;;;;;;;;;;4975374;28;19961;-71
2023/10/02 00:37:44;;;;;;;1.77;0.57;;;;;;;;;;4978240;28;20117;-71
2023/10/02 00:40:28;;;;;;;0.40;0.40;;;;;;;;;;4976576;28;20050;-71
2023/10/02 00:42:59;;;;;;;1.00;1.00;;;;;;;;;;4931537;28;1444395;-71
2023/10/02 00:45:38;;;;;;;1.40;1.35;;;;;;;;;;4980037;28;20117;-71
2023/10/02 00:48:25;;;;;;;0.10;0.10;;;;;;;;;;4976690;28;20050;-71
2023/10/02 00:50:55;;;;;;;0.00;0.00;;;;;;;;;;4981343;28;20038;-71
2023/10/02 00:53:40;;;;;;;1.48;1.45;;;;;;;;;;4974720;28;20093;-71
2023/10/02 00:56:19;;;;;;;0.10;0.10;;;;;;;;;;4975791;28;20047;-71
2023/10/02 00:58:54;;;;;;;0.85;0.35;;;;;;;;;;4995104;28;20101;-71
2023/10/02 01:01:23;;;;;;;0.00;0.00;;;;;;;;;;4979457;28;20490;-71
2023/10/02 01:04:10;;;;;;;0.25;0.25;;;;;;;;;;4974322;28;20055;-71
2023/10/02 01:07:25;;;;;;;0.10;0.10;;;;;;;;;;4977023;28;20038;-71
2023/10/02 01:09:34;;;;;;;0.10;0.10;;;;;;;;;;4991939;28;20411;-71
2023/10/02 01:12:01;;;;;;;0.47;0.43;;;;;;;;;;4977004;28;20181;-71
2023/10/02 01:17:27;;;;;;;0.98;0.98;;;;;;;;;;4974934;28;20516;-70
2023/10/02 01:19:57;;;;;;;0.32;0.32;;;;;;;;;;4976827;28;20097;-71
2023/10/02 01:22:26;;;;;;;0.00;0.00;;;;;;;;;;4975975;28;20058;-71
2023/10/02 01:25:14;;;;;;;0.00;0.00;;;;;;;;;;4989524;28;20130;-71
2023/10/02 01:27:48;;;;;;;0.32;0.32;;;;;;;;;;4978124;28;20824;-72
2023/10/02 01:30:21;;;;;;;7.95;7.43;;;;;;;;;;4983103;28;20038;-72
2023/10/02 01:33:06;;;;;;;2.17;0.73;;;;;;;;;;4978580;28;20173;-72
2023/10/02 01:35:48;;;;;;;4.55;4.32;;;;;;;;;;4976302;28;20051;-72
2023/10/02 01:38:29;;;;;;;0.10;0.10;;;;;;;;;;4995477;28;20544;-71
2023/10/02 01:41:04;;;;;;;1.42;1.38;;;;;;;;;;4981090;28;20054;-72
2023/10/02 01:43:39;;;;;;;0.00;0.00;;;;;;;;;;4970196;28;20133;-72
2023/10/02 01:46:07;;;;;;;0.25;0.25;;;;;;;;;;4979634;28;20472;-72
2023/10/02 01:48:44;;;;;;;2.53;1.55;;;;;;;;;;4982076;28;20058;-72
2023/10/02 01:51:15;;;;;;;0.00;0.00;;;;;;;;;;4976953;28;20055;-71
2023/10/02 01:53:45;;;;;;;0.10;0.10;;;;;;;;;;4990172;28;20050;-72
2023/10/02 01:56:13;;;;;;;1.88;1.45;;;;;;;;;;4978063;28;20057;-71
2023/10/02 01:58:42;;;;;;;0.25;0.25;;;;;;;;;;4984870;28;20626;-71
2023/10/02 02:01:10;;;;;;;0.00;0.00;;;;;;;;;;4982068;28;20464;-71
2023/10/02 02:03:38;;;;;;;0.00;0.00;;;;;;;;;;4979988;28;20477;-71
2023/10/02 02:06:09;;;;;;;0.45;0.25;;;;;;;;;;4978548;28;20528;-71
2023/10/02 02:08:37;;;;;;;0.10;0.10;;;;;;;;;;4978632;28;20536;-71
2023/10/02 02:11:16;;;;;;;0.32;0.32;;;;;;;;;;4981831;28;20046;-71
2023/10/02 02:13:46;;;;;;;0.22;0.22;;;;;;;;;;4978730;28;20046;-71
2023/10/02 02:16:21;;;;;;;0.55;0.55;;;;;;;;;;4980707;28;20385;-71
2023/10/02 02:18:56;;;;;;;0.25;0.25;;;;;;;;;;4983701;28;20050;-71
2023/10/02 02:21:24;;;;;;;0.38;0.30;;;;;;;;;;4981026;28;20081;-71
2023/10/02 02:24:03;;;;;;;0.22;0.22;;;;;;;;;;4984164;28;20583;-71
2023/10/02 02:26:31;;;;;;;0.00;0.00;;;;;;;;;;5000108;28;20047;-71
2023/10/02 02:28:59;;;;;;;0.10;0.10;;;;;;;;;;4984006;28;20120;-71
2023/10/02 02:31:30;;;;;;;0.15;0.15;;;;;;;;;;4978824;28;20149;-71
2023/10/02 02:34:17;;;;;;;0.10;0.10;;;;;;;;;;4979072;28;20057;-71
2023/10/02 02:36:46;;;;;;;0.65;0.65;;;;;;;;;;4983953;28;20132;-71
2023/10/02 02:39:17;;;;;;;0.25;0.25;;;;;;;;;;4975302;28;20062;-71
2023/10/02 02:41:48;;;;;;;0.10;0.10;;;;;;;;;;5000988;23;20050;-77
2023/10/02 02:47:09;;;;;;;0.30;0.30;;;;;;;;;;5042334;28;20511;-77
2023/10/02 02:49:48;;;;;;;0.35;0.35;;;;;;;;;;5010702;28;20462;-75
2023/10/02 02:52:24;;;;;;;0.95;0.50;;;;;;;;;;5005000;28;20065;-76
2023/10/02 02:54:59;;;;;;;0.52;0.52;;;;;;;;;;5006419;28;20050;-76
2023/10/02 02:57:28;;;;;;;0.20;0.20;;;;;;;;;;5010808;28;20092;-78
2023/10/02 03:00:24;;;;;;;0.98;0.15;;;;;;;;;;5017788;28;20041;-79
2023/10/02 03:02:46;;;;;;;0.40;0.40;;;;;;;;;;5007165;28;20464;-77
2023/10/02 03:05:16;;;;;;;0.20;0.20;;;;;;;;;;5007995;28;20072;-77
2023/10/02 03:07:44;;;;;;;0.30;0.30;;;;;;;;;;5009648;28;20046;-76
2023/10/02 03:10:12;;;;;;;0.13;0.13;;;;;;;;;;5006173;28;20050;-79
2023/10/02 03:12:47;;;;;;;0.77;0.52;;;;;;;;;;5002441;28;20042;-78
2023/10/02 03:15:19;;;;;;;3.85;3.65;;;;;;;;;;5007536;28;20457;-76
2023/10/02 03:17:48;;;;;;;0.25;0.22;;;;;;;;;;5007557;28;20073;-76
2023/10/02 03:20:22;;;;;;;0.00;0.00;;;;;;;;;;5004657;28;20049;-77
2023/10/02 03:22:54;;;;;;;0.00;0.00;;;;;;;;;;5002866;28;20046;-76
2023/10/02 03:25:28;;;;;;;0.00;0.00;;;;;;;;;;5005795;28;20045;-76
2023/10/02 03:27:57;;;;;;;0.00;0.00;;;;;;;;;;5007380;28;20045;-76
2023/10/02 03:30:41;;;;;;;1.98;0.32;;;;;;;;;;5005809;28;20127;-77
2023/10/02 03:33:20;;;;;;;0.30;0.30;;;;;;;;;;5006806;28;20059;-78
2023/10/02 03:38:41;;;;;;;0.00;0.00;;;;;;;;;;5004702;28;20050;-75
2023/10/02 03:41:10;;;;;;;0.00;0.00;;;;;;;;;;5007116;28;20057;-76
2023/10/02 03:43:46;;;;;;;0.05;0.05;;;;;;;;;;5006475;28;20125;-76
2023/10/02 03:46:24;;;;;;;0.17;0.17;;;;;;;;;;5004991;28;20069;-77
2023/10/02 03:48:58;;;;;;;0.00;0.00;;;;;;;;;;5003826;28;20065;-76
2023/10/02 03:51:40;;;;;;;0.00;0.00;;;;;;;;;;5006571;28;20091;-76
2023/10/02 03:54:18;;;;;;;0.40;0.40;;;;;;;;;;5006626;28;20057;-76
2023/10/02 03:56:55;;;;;;;0.75;0.73;;;;;;;;;;5001101;28;20492;-76
2023/10/02 03:59:27;;;;;;;0.63;0.63;;;;;;;;;;5003586;28;20049;-78
2023/10/02 04:02:24;;;;;;;0.13;0.13;;;;;;;;;;5004544;28;20046;-76
2023/10/02 04:04:49;;;;;;;0.17;0.17;;;;;;;;;;5004111;28;20111;-76
2023/10/02 04:07:20;;;;;;;0.45;0.45;;;;;;;;;;5001452;28;20077;-76
2023/10/02 04:09:50;;;;;;;0.20;0.20;;;;;;;;;;5006360;28;20056;-76
2023/10/02 04:12:17;;;;;;;0.08;0.08;;;;;;;;;;5003592;28;20046;-76
2023/10/02 04:14:46;;;;;;;0.00;0.00;;;;;;;;;;5006655;28;20046;-76
2023/10/02 04:19:49;;;;;;;0.10;0.10;;;;;;;;;;5006360;28;20065;-76
2023/10/02 04:22:22;;;;;;;0.00;0.00;;;;;;;;;;5001646;28;20271;-76
2023/10/02 04:24:51;;;;;;;0.10;0.10;;;;;;;;;;5006187;28;20042;-77
2023/10/02 04:27:25;;;;;;;0.00;0.00;;;;;;;;;;5005063;28;20452;-76
2023/10/02 04:30:39;;;;;;;0.00;0.00;;;;;;;;;;4999184;28;20535;-77
2023/10/02 04:32:59;;;;;;;0.00;0.00;;;;;;;;;;4992078;28;20280;-76
2023/10/02 04:35:45;;;;;;;0.20;0.20;;;;;;;;;;5004383;28;20062;-76
2023/10/02 04:38:14;;;;;;;0.20;0.20;;;;;;;;;;5005784;28;20046;-77
2023/10/02 04:40:52;;;;;;;0.00;0.00;;;;;;;;;;5005209;28;20050;-76
2023/10/02 04:43:22;;;;;;;0.57;0.47;;;;;;;;;;5005153;28;20402;-76
2023/10/02 04:45:52;;;;;;;0.22;0.22;;;;;;;;;;5004991;28;20132;-76
2023/10/02 04:48:27;;;;;;;0.25;0.25;;;;;;;;;;5003936;28;20478;-77
2023/10/02 04:50:56;;;;;;;0.00;0.00;;;;;;;;;;5003022;28;20042;-76
2023/10/02 04:53:24;;;;;;;0.08;0.08;;;;;;;;;;5002582;28;20481;-76
2023/10/02 04:56:26;;;;;;;1.75;0.35;;;;;;;;;;4998323;28;20583;-76
2023/10/02 04:58:52;;;;;;;0.60;0.20;;;;;;;;;;5000660;28;20808;-76
2023/10/02 05:01:29;;;;;;;12.57;11.63;;;;;;;;;;4998782;28;20049;-77
2023/10/02 05:04:02;;;;;;;0.10;0.10;;;;;;;;;;5001987;28;20068;-77
2023/10/02 05:11:52;;;;;;;0.20;0.20;;;;;;;;;;5004693;28;20052;-76
2023/10/02 05:14:28;;;;;;;0.20;0.20;;;;;;;;;;5005167;28;20067;-76
2023/10/02 05:20:02;;;;;;;0.20;0.10;;;;;;;;;;5007583;28;20069;-76
2023/10/02 05:22:31;;;;;;;0.10;0.10;;;;;;;;;;5008903;28;20049;-76
2023/10/02 05:24:59;;;;;;;0.00;0.00;;;;;;;;;;5005538;28;20120;-76
2023/10/02 05:27:31;;;;;;;0.00;0.00;;;;;;;;;;5002952;28;20046;-77
2023/10/02 05:29:58;;;;;;;;;;;;;;;;;;5003856;28;20045;-77
2023/10/02 05:32:35;;;;;;;0.00;0.00;;;;;;;;;;4997263;28;19929;-76
2023/10/02 05:35:16;;;;;;;0.00;0.00;;;;;;;;;;4999002;28;20411;-77
2023/10/02 05:37:50;;;;;;;2.13;0.47;;;;;;;;;;4994602;28;20052;-76
2023/10/02 05:45:40;;;;;;;0.30;0.30;;;;;;;;;;5007445;28;20591;-76
2023/10/02 05:48:14;;;;;;;0.57;0.35;;;;;;;;;;5010254;28;20057;-77
2023/10/02 05:50:47;;;;;;;0.43;0.40;;;;;;;;;;5007258;28;20492;-76
2023/10/02 05:53:15;;;;;;;0.73;0.73;;;;;;;;;;5008314;28;20092;-77
2023/10/02 05:58:33;;;;;;;3.00;2.90;;;;;;;;;;5005647;28;20125;-76
2023/10/02 06:01:03;;;;;;;0.55;0.55;;;;;;;;;;5009709;28;20046;-76
2023/10/02 06:03:35;;;;;;;1.35;1.25;;;;;;;;;;5004540;28;20068;-77
2023/10/02 06:06:23;;;;;;;0.00;0.00;;;;;;;;;;5009368;28;20129;-76
2023/10/02 06:08:51;;;;;;;0.35;0.35;;;;;;;;;;5003376;28;20096;-76
2023/10/02 06:11:35;;;;;;;17.50;16.42;;;;;;;;;;5007427;28;20053;-76
2023/10/02 06:14:09;;;;;;;0.20;0.20;;;;;;;;;;5011429;28;20053;-76
2023/10/02 06:16:39;;;;;;;0.90;0.90;;;;;;;;;;5012693;28;20061;-76
2023/10/02 06:19:13;;;;;;;0.30;0.30;;;;;;;;;;5007792;28;20053;-76
2023/10/02 06:24:27;;;;;;;0.40;0.40;;;;;;;;;;5007517;28;20081;-76
2023/10/02 06:27:04;;;;;;;0.00;0.00;;;;;;;;;;5005808;28;20057;-76
2023/10/02 06:29:36;;;;;;;3.40;2.08;;;;;;;;;;5005750;28;20531;-76
2023/10/02 06:32:19;;;;;;;11.85;11.07;;;;;;;;;;5008949;28;20054;-76
2023/10/02 06:34:47;;;;;;;0.28;0.28;;;;;;;;;;5002836;28;20056;-77
2023/10/02 06:37:21;;;;;;;0.28;0.28;;;;;;;;;;5009245;28;20045;-77
2023/10/02 06:40:06;;;;;;;44.83;41.10;;;;;;;;;;5005428;28;20053;-76
2023/10/02 06:42:34;;;;;;;3.08;2.95;;;;;;;;;;5008924;28;20526;-76
2023/10/02 06:45:01;;;;;;;0.20;0.20;;;;;;;;;;5006698;28;20045;-76
2023/10/02 06:47:32;;;;;;;0.40;0.40;;;;;;;;;;5006216;28;20050;-76
2023/10/02 06:50:03;;;;;;;0.00;0.00;;;;;;;;;;5006879;28;20058;-77
2023/10/02 06:52:32;;;;;;;0.35;0.35;;;;;;;;;;5006772;28;20253;-77
2023/10/02 06:55:01;;;;;;;1.73;1.65;;;;;;;;;;5008605;28;20073;-76
2023/10/02 06:57:31;;;;;;;0.00;0.00;;;;;;;;;;5008736;28;20441;-77
2023/10/02 07:00:03;;;;;;;1.02;1.02;;;;;;;;;;5005539;28;20488;-76
2023/10/02 07:02:32;;;;;;;0.30;0.30;;;;;;;;;;5006777;28;20503;-76
2023/10/02 07:05:00;;;;;;;0.00;0.00;;;;;;;;;;5004812;28;20119;-76
2023/10/02 07:07:30;;;;;;;0.00;0.00;;;;;;;;;;5008199;28;20046;-76
2023/10/02 07:10:08;;;;;;;0.00;0.00;;;;;;;;;;5005320;28;20053;-77
2023/10/02 07:12:40;;;;;;;0.10;0.10;;;;;;;;;;5006421;28;21183;-76
2023/10/02 07:15:12;;;;;;;0.10;0.10;;;;;;;;;;5005290;28;20056;-77
2023/10/02 07:17:50;;;;;;;0.00;0.00;;;;;;;;;;5005004;28;20050;-77
2023/10/02 07:20:21;;;;;;;0.10;0.10;;;;;;;;;;5005060;28;20100;-76
2023/10/02 07:22:53;;;;;;;6.55;6.25;;;;;;;;;;5006851;28;20054;-77
2023/10/02 07:25:20;;;;;;;0.10;0.10;;;;;;;;;;5004225;28;20554;-76
2023/10/02 07:27:48;;;;;;;1.80;0.85;;;;;;;;;;5006879;28;20375;-76
2023/10/02 07:30:26;;;;;;;0.10;0.10;;;;;;;;;;5007781;28;20458;-77
2023/10/02 07:33:02;;;;;;;0.20;0.20;;;;;;;;;;5005517;28;20045;-77
2023/10/02 07:35:31;;;;;;;0.63;0.63;;;;;;;;;;5003278;28;20042;-77
2023/10/02 07:37:58;;;;;;;3.35;3.15;;;;;;;;;;4987514;28;20088;-76
2023/10/02 07:40:48;;;;;;;1.15;1.15;;;;;;;;;;5005643;28;20050;-77
2023/10/02 07:43:18;;;;;;;0.25;0.25;;;;;;;;;;5003667;28;20087;-77
2023/10/02 07:46:01;;;;;;;0.28;0.25;;;;;;;;;;5008473;28;20522;-77
2023/10/02 07:48:33;;;;;;;0.00;0.00;;;;;;;;;;5007913;28;20073;-76
2023/10/02 07:51:01;;;;;;;0.10;0.10;;;;;;;;;;5008235;28;20108;-76
2023/10/02 07:53:41;;;;;;;1.08;0.98;;;;;;;;;;5009822;28;20104;-76
2023/10/02 07:56:14;;;;;;;0.70;0.30;;;;;;;;;;5007325;28;20992;-76
2023/10/02 07:58:43;;;;;;;0.10;0.10;;;;;;;;;;5005399;28;20058;-77
2023/10/02 08:01:13;;;;;;;0.80;0.68;;;;;;;;;;5005581;28;20110;-78
2023/10/02 08:03:44;;;;;;;0.65;0.65;;;;;;;;;;5005879;28;20141;-78
2023/10/02 08:06:21;;;;;;;12.82;7.47;;;;;;;;;;5007224;28;20108;-77
2023/10/02 08:11:37;;;;;;;0.00;0.00;;;;;;;;;;5007164;28;20077;-76
2023/10/02 08:14:05;;;;;;;0.10;0.10;;;;;;;;;;5005452;28;20129;-77
2023/10/02 08:16:58;;;;;;;0.10;0.10;;;;;;;;;;5007596;28;20140;-77
2023/10/02 08:19:22;;;;;;;0.00;0.00;;;;;;;;;;5004894;28;20124;-77
2023/10/02 08:21:50;;;;;;;0.95;0.35;;;;;;;;;;5006975;28;20073;-77
2023/10/02 08:24:18;;;;;;;0.47;0.47;;;;;;;;;;5002265;28;20507;-77
2023/10/02 08:26:45;;;;;;;1.35;0.43;;;;;;;;;;5005524;28;20140;-77
2023/10/02 08:29:14;;;;;;;0.00;0.00;;;;;;;;;;5003045;28;20176;-77
2023/10/02 08:31:43;;;;;;;7.93;7.32;;;;;;;;;;5002926;28;20104;-76
2023/10/02 08:34:12;;;;;;;0.13;0.13;;;;;;;;;;5006702;28;20542;-77
2023/10/02 08:36:42;;;;;;;0.83;0.10;;;;;;;;;;5004376;28;20074;-77
2023/10/02 08:39:09;;;;;;;0.00;0.00;;;;;;;;;;5006754;28;20374;-77
2023/10/02 08:41:50;;;;;;;0.98;0.98;;;;;;;;;;5005696;28;20089;-77
2023/10/02 08:44:22;;;;;;;0.00;0.00;;;;;;;;;;5005990;28;20412;-77
2023/10/02 08:46:49;;;;;;;0.17;0.17;;;;;;;;;;5007384;28;20124;-77
2023/10/02 08:49:17;;;;;;;0.15;0.15;;;;;;;;;;5004055;28;20579;-77
2023/10/02 08:51:51;;;;;;;0.38;0.38;;;;;;;;;;5006343;28;20458;-77
2023/10/02 08:54:19;;;;;;;0.00;0.00;;;;;;;;;;5003760;28;20070;-77
2023/10/02 08:57:01;;;;;;;0.00;0.00;;;;;;;;;;5008993;28;20049;-77
2023/10/02 08:59:35;;;;;;;0.28;0.28;;;;;;;;;;5007419;28;20165;-76
2023/10/02 09:02:16;;;;;;;3.45;3.33;;;;;;;;;;5006783;28;20053;-77
2023/10/02 09:05:09;;;;;;;0.00;0.00;;;;;;;;;;5004475;28;20069;-76
2023/10/02 09:08:24;;;;;;;0.55;0.55;;;;;;;;;;5006469;28;20068;-76
2023/10/02 09:10:26;;;;;;;0.10;0.10;;;;;;;;;;4997360;28;20064;-76
2023/10/02 09:13:16;;;;;;;0.00;0.00;;;;;;;;;;5002545;28;20448;-76
2023/10/02 09:15:45;;;;;;;0.32;0.32;;;;;;;;;;5005098;28;20107;-76
2023/10/02 09:19:07;;;;;;;0.10;0.10;;;;;;;;;;5004232;28;20046;-76
2023/10/02 09:21:24;;;;;;;0.20;0.20;;;;;;;;;;5005112;28;20057;-76
2023/10/02 09:23:52;;;;;;;0.63;0.63;;;;;;;;;;5008448;28;20057;-76
2023/10/02 09:26:24;;;;;;;3.28;1.95;;;;;;;;;;5004300;28;20058;-76
2023/10/02 09:29:00;;;;;;;1.90;1.80;;;;;;;;;;5008152;28;20046;-76
2023/10/02 09:31:30;;;;;;;5.57;1.23;;;;;;;;;;5004783;28;20132;-76
2023/10/02 09:34:10;;;;;;;6.63;6.05;;;;;;;;;;5005622;28;20049;-77
2023/10/02 09:37:08;;;;;;;2.10;1.33;;;;;;;;;;5001185;28;20038;-77
2023/10/02 09:39:56;;;;;;;1.08;0.98;;;;;;;;;;5005841;28;20112;-76
2023/10/02 09:42:23;;;;;;;0.20;0.20;;;;;;;;;;5006107;28;20468;-76
2023/10/02 09:44:53;;;;;;;0.50;0.50;;;;;;;;;;5006274;28;20057;-76
2023/10/02 09:47:21;;;;;;;0.00;0.00;;;;;;;;;;5004073;28;20042;-76
2023/10/02 09:50:11;;;;;;;0.13;0.13;;;;;;;;;;5002145;28;20053;-76
2023/10/02 09:53:09;;;;;;;1.15;0.85;;;;;;;;;;5006047;28;20072;-77
2023/10/02 09:55:51;;;;;;;5.10;1.23;;;;;;;;;;4992746;28;20488;-76
2023/10/02 09:58:26;;;;;;;0.30;0.30;;;;;;;;;;5004532;28;20038;-76
2023/10/02 10:01:59;;;;;;;1.90;1.85;;;;;;;;;;5009596;28;20066;-76
2023/10/02 10:03:58;;;;;;;34.55;30.42;;;;;;;;;;5003422;28;20045;-75
2023/10/02 10:06:36;;;;;;;0.10;0.10;;;;;;;;;;5009806;28;20065;-76
2023/10/02 10:11:43;;;;;;;0.32;0.32;;;;;;;;;;5004591;28;20049;-76
2023/10/02 10:14:38;;;;;;;0.20;0.20;;;;;;;;;;5010022;28;20058;-76
2023/10/02 10:17:14;;;;;;;0.32;0.05;;;;;;;;;;5003361;28;20065;-76
2023/10/02 10:23:19;;;;;;;1.20;0.60;;;;;;;;;;4967692;28;20505;-76
2023/10/02 10:25:50;;;;;;;0.00;0.00;;;;;;;;;;4965227;28;20054;-76
2023/10/02 10:28:28;;;;;;;0.00;0.00;;;;;;;;;;4992066;28;20041;-76
2023/10/02 10:31:01;;;;;;;0.25;0.25;;;;;;;;;;5009048;28;20053;-76
2023/10/02 10:33:33;;;;;;;0.10;0.10;;;;;;;;;;5009201;28;20050;-76
2023/10/02 10:36:08;;;;;;;0.47;0.17;;;;;;;;;;5009292;28;20244;-76
2023/10/02 10:38:36;;;;;;;0.00;0.00;;;;;;;;;;5008991;28;20050;-76
2023/10/02 10:41:09;;;;;;;0.25;0.25;;;;;;;;;;5006823;28;20503;-76
2023/10/02 10:43:55;;;;;;;0.10;0.10;;;;;;;;;;5008944;28;20553;-76
2023/10/02 10:46:27;;;;;;;0.00;0.00;;;;;;;;;;5007012;28;20070;-76
2023/10/02 10:49:08;;;;;;;0.30;0.22;;;;;;;;;;5008443;28;20129;-76
2023/10/02 10:51:37;;;;;;;0.93;0.88;;;;;;;;;;5008854;28;20397;-76
2023/10/02 10:54:25;;;;;;;0.00;0.00;;;;;;;;;;5009486;28;20348;-76
2023/10/02 10:57:19;;;;;;;0.00;0.00;;;;;;;;;;5011827;28;20100;-76
2023/10/02 10:59:47;;;;;;;0.00;0.00;;;;;;;;;;5007297;28;20077;-76
2023/10/02 11:02:16;;;;;;;0.10;0.10;;;;;;;;;;5013376;28;20050;-77
2023/10/02 11:04:50;;;;;;;0.00;0.00;;;;;;;;;;5007742;28;20049;-76
2023/10/02 11:07:19;;;;;;;1.67;0.38;;;;;;;;;;5009204;28;20053;-76
2023/10/02 11:10:18;;;;;;;0.43;0.10;;;;;;;;;;5011855;28;20570;-76
2023/10/02 11:12:58;;;;;;;0.00;0.00;;;;;;;;;;5008558;28;20050;-76
2023/10/02 11:15:46;;;;;;;0.00;0.00;;;;;;;;;;5008662;28;20045;-76
2023/10/02 11:18:23;;;;;;;0.00;0.00;;;;;;;;;;5009201;28;20049;-77
2023/10/02 11:20:54;;;;;;;0.00;0.00;;;;;;;;;;5011064;28;20048;-76
2023/10/02 11:23:39;;;;;;;0.00;0.00;;;;;;;;;;5008809;28;20535;-77
2023/10/02 11:26:13;;;;;;;0.00;0.00;;;;;;;;;;5009784;28;20054;-76
2023/10/02 11:28:42;;;;;;;0.20;0.20;;;;;;;;;;5009836;28;20483;-77
2023/10/02 11:31:29;;;;;;;0.00;0.00;;;;;;;;;;5008501;28;20061;-76
2023/10/02 11:34:00;;;;;;;0.00;0.00;;;;;;;;;;5006911;28;20056;-76
2023/10/02 11:36:53;;;;;;;0.20;0.20;;;;;;;;;;5006952;28;20037;-76
2023/10/02 11:39:29;;;;;;;0.25;0.25;;;;;;;;;;5010481;28;20054;-76
2023/10/02 11:41:56;;;;;;;0.15;0.15;;;;;;;;;;5009719;28;20207;-76
2023/10/02 11:44:26;;;;;;;0.00;0.00;;;;;;;;;;5008095;28;20080;-76
2023/10/02 11:46:54;;;;;;;0.00;0.00;;;;;;;;;;5007657;28;20125;-76
2023/10/02 11:49:22;;;;;;;0.00;0.00;;;;;;;;;;5006511;28;20100;-76
2023/10/02 11:51:49;;;;;;;0.22;0.22;;;;;;;;;;5005481;28;20496;-76
2023/10/02 11:54:17;;;;;;;0.00;0.00;;;;;;;;;;5005386;28;20053;-76
2023/10/02 11:56:47;;;;;;;0.05;0.05;;;;;;;;;;5007970;28;20090;-76
2023/10/02 11:59:14;;;;;;;0.00;0.00;;;;;;;;;;5007260;28;20145;-76
2023/10/02 12:01:47;;;;;;;0.00;0.00;;;;;;;;;;5003505;28;20499;-76
2023/10/02 12:04:15;;;;;;;0.15;0.15;;;;;;;;;;5002189;28;20127;-76
2023/10/02 12:06:43;;;;;;;3.13;2.95;;;;;;;;;;5000190;28;20510;-76
2023/10/02 12:09:17;;;;;;;0.00;0.00;;;;;;;;;;5000102;28;20156;-77
2023/10/02 12:11:45;;;;;;;0.00;0.00;;;;;;;;;;5001124;28;20053;-76
2023/10/02 12:14:13;;;;;;;0.00;0.00;;;;;;;;;;5004476;28;20229;-76
2023/10/02 12:16:41;;;;;;;0.00;0.00;;;;;;;;;;5001966;28;20062;-76
2023/10/02 12:19:10;;;;;;;0.00;0.00;;;;;;;;;;5004412;28;20108;-76
2023/10/02 12:21:37;;;;;;;0.00;0.00;;;;;;;;;;5007317;28;20104;-76
2023/10/02 12:24:07;;;;;;;0.00;0.00;;;;;;;;;;5005775;28;20522;-76
2023/10/02 12:26:35;;;;;;;0.00;0.00;;;;;;;;;;5000982;28;20443;-76
2023/10/02 12:29:02;;;;;;;0.00;0.00;;;;;;;;;;5005600;28;20113;-76
2023/10/02 12:31:36;;;;;;;0.00;0.00;;;;;;;;;;5009607;28;20400;-76
2023/10/02 12:34:05;;;;;;;0.08;0.08;;;;;;;;;;5009544;28;20114;-76
2023/10/02 12:36:33;;;;;;;0.00;0.00;;;;;;;;;;5010548;28;20042;-76
2023/10/02 12:39:00;;;;;;;0.00;0.00;;;;;;;;;;5007029;28;20050;-76
2023/10/02 12:41:29;;;;;;;0.00;0.00;;;;;;;;;;5005132;28;20043;-76
2023/10/02 12:43:58;;;;;;;0.15;0.15;;;;;;;;;;5000082;28;20497;-76
2023/10/02 12:46:30;;;;;;;0.20;0.20;;;;;;;;;;5007673;28;20048;-76
2023/10/02 12:49:00;;;;;;;0.10;0.10;;;;;;;;;;5006624;28;20546;-76
2023/10/02 12:51:31;;;;;;;0.00;0.00;;;;;;;;;;5003330;28;20062;-76
2023/10/02 12:53:58;;;;;;;0.10;0.10;;;;;;;;;;5006656;28;20053;-76
2023/10/02 12:56:26;;;;;;;0.00;0.00;;;;;;;;;;5006728;28;20503;-76
2023/10/02 12:58:54;;;;;;;0.08;0.08;;;;;;;;;;5006302;28;20049;-76
2023/10/02 13:01:27;;;;;;;0.00;0.00;;;;;;;;;;5004544;28;20092;-76
2023/10/02 13:03:55;;;;;;;0.00;0.00;;;;;;;;;;5004441;28;20054;-77
2023/10/02 13:06:26;;;;;;;0.00;0.00;;;;;;;;;;5006843;28;20057;-76
2023/10/02 13:09:01;;;;;;;0.10;0.10;;;;;;;;;;5006506;28;20405;-76
2023/10/02 13:11:29;;;;;;;0.00;0.00;;;;;;;;;;5007162;28;20050;-76
2023/10/02 13:13:56;;;;;;;0.00;0.00;;;;;;;;;;4994372;28;20144;-76
2023/10/02 13:16:25;;;;;;;0.00;0.00;;;;;;;;;;5002816;28;20116;-76
2023/10/02 13:18:55;;;;;;;0.00;0.00;;;;;;;;;;5006239;28;20436;-77
2023/10/02 13:21:24;;;;;;;0.10;0.10;;;;;;;;;;5006056;28;20050;-77
2023/10/02 13:23:51;;;;;;;0.00;0.00;;;;;;;;;;5006872;28;20104;-77
2023/10/02 13:26:19;;;;;;;0.00;0.00;;;;;;;;;;5006390;28;20057;-77
2023/10/02 13:28:52;;;;;;;0.10;0.10;;;;;;;;;;5008175;28;20164;-77
2023/10/02 13:31:20;;;;;;;0.00;0.00;;;;;;;;;;5007159;28;20063;-77
2023/10/02 13:33:51;;;;;;;0.45;0.43;;;;;;;;;;5011719;28;20412;-77
2023/10/02 13:36:22;;;;;;;;;;;;;;;;;;5011262;28;20092;-77
2023/10/02 13:38:54;;;;;;;0.00;0.00;;;;;;;;;;5009625;28;20016;-77
2023/10/02 13:41:21;;;;;;;0.00;0.00;;;;;;;;;;5009990;28;20050;-77
2023/10/02 13:43:52;;;;;;;0.10;0.10;;;;;;;;;;5009810;28;20491;-77
2023/10/02 13:46:23;;;;;;;0.00;0.00;;;;;;;;;;5004744;28;20100;-77
2023/10/02 13:48:54;;;;;;;0.00;0.00;;;;;;;;;;5009350;28;20049;-77
2023/10/02 13:51:22;;;;;;;0.05;0.05;;;;;;;;;;5008534;28;20054;-77
2023/10/02 13:53:51;;;;;;;0.05;0.05;;;;;;;;;;5009992;28;20050;-77
2023/10/02 13:56:25;;;;;;;0.00;0.00;;;;;;;;;;5009195;28;20046;-78
2023/10/02 13:58:53;;;;;;;0.00;0.00;;;;;;;;;;5009336;28;20570;-77
2023/10/02 14:01:21;;;;;;;0.00;0.00;;;;;;;;;;5003182;28;20049;-77
2023/10/02 14:03:52;;;;;;;0.08;0.08;;;;;;;;;;5012019;28;20056;-77
2023/10/02 14:06:22;;;;;;;0.97;0.30;;;;;;;;;;5006547;28;20057;-77
2023/10/02 14:08:49;;;;;;;0.93;0.13;;;;;;;;;;5011788;28;20053;-79
2023/10/02 14:11:18;;;;;;;0.08;0.08;;;;;;;;;;5013044;28;20145;-77
2023/10/02 14:13:48;;;;;;;0.00;0.00;;;;;;;;;;5009715;28;20049;-77
2023/10/02 14:16:18;;;;;;;0.00;0.00;;;;;;;;;;5009679;28;20042;-77
2023/10/02 14:18:45;;;;;;;0.45;0.45;;;;;;;;;;5004832;28;20042;-77
2023/10/02 14:21:14;;;;;;;0.30;0.30;;;;;;;;;;5009319;28;20129;-77
2023/10/02 14:23:43;;;;;;;0.00;0.00;;;;;;;;;;5008179;28;20056;-77
2023/10/02 14:26:11;;;;;;;0.80;0.65;;;;;;;;;;5009247;28;20425;-77
2023/10/02 14:28:39;;;;;;;0.20;0.20;;;;;;;;;;5009281;28;20057;-77
2023/10/02 14:31:07;;;;;;;0.10;0.10;;;;;;;;;;5009501;28;20135;-77
2023/10/02 14:33:35;;;;;;;0.00;0.00;;;;;;;;;;5009875;28;20416;-77
2023/10/02 14:36:07;;;;;;;0.10;0.10;;;;;;;;;;5009455;28;20092;-77
2023/10/02 14:38:35;;;;;;;0.10;0.10;;;;;;;;;;5007877;28;20045;-78
2023/10/02 14:41:03;;;;;;;0.32;0.32;;;;;;;;;;5006071;28;20050;-77
2023/10/02 14:43:34;;;;;;;0.10;0.10;;;;;;;;;;5035518;23;20057;-77
2023/10/02 14:46:02;;;;;;;0.17;0.17;;;;;;;;;;5026731;28;20049;-77
2023/10/02 14:48:30;;;;;;;0.40;0.40;;;;;;;;;;5020651;28;20049;-76
2023/10/02 14:51:13;;;;;;;0.00;0.00;;;;;;;;;;5005541;28;20034;-77
2023/10/02 14:53:41;;;;;;;0.05;0.05;;;;;;;;;;5008377;28;20057;-77
2023/10/02 14:56:08;;;;;;;0.00;0.00;;;;;;;;;;5005427;28;20050;-76
2023/10/02 14:58:46;;;;;;;0.85;0.85;;;;;;;;;;5008428;28;20088;-77
2023/10/02 15:01:16;;;;;;;0.15;0.15;;;;;;;;;;5005767;28;21080;-77
2023/10/02 15:03:45;;;;;;;0.00;0.00;;;;;;;;;;5007904;28;20050;-77
2023/10/02 15:06:13;;;;;;;0.00;0.00;;;;;;;;;;5005044;28;20456;-77
2023/10/02 15:08:41;;;;;;;0.22;0.22;;;;;;;;;;5006378;28;20069;-77
2023/10/02 15:11:16;;;;;;;0.15;0.15;;;;;;;;;;5004520;28;20168;-77
2023/10/02 15:13:45;;;;;;;0.10;0.10;;;;;;;;;;5002540;28;20045;-77
2023/10/02 15:16:14;;;;;;;0.00;0.00;;;;;;;;;;5003059;28;20459;-77
2023/10/02 15:18:45;;;;;;;1.30;0.30;;;;;;;;;;4999530;28;20038;-77
2023/10/02 15:21:16;;;;;;;0.17;0.17;;;;;;;;;;5005503;28;20099;-77
2023/10/02 15:23:43;;;;;;;0.00;0.00;;;;;;;;;;4999778;28;20060;-76
2023/10/02 15:26:11;;;;;;;0.80;0.80;;;;;;;;;;5005553;28;20435;-77
2023/10/02 15:28:39;;;;;;;2.47;1.38;;;;;;;;;;5006440;28;20156;-76
2023/10/02 15:31:07;;;;;;;1.65;0.85;;;;;;;;;;5005743;28;20792;-77
2023/10/02 15:33:36;;;;;;;0.00;0.00;;;;;;;;;;5004565;28;20104;-76
2023/10/02 15:36:04;;;;;;;0.70;0.40;;;;;;;;;;5004358;28;20038;-77
2023/10/02 15:38:32;;;;;;;0.00;0.00;;;;;;;;;;5001616;28;20499;-76
2023/10/02 15:41:01;;;;;;;0.22;0.22;;;;;;;;;;5005114;28;20476;-77
2023/10/02 15:43:29;;;;;;;0.10;0.00;;;;;;;;;;5004107;28;20077;-76
2023/10/02 15:45:58;;;;;;;0.00;0.00;;;;;;;;;;5005216;28;20048;-77
2023/10/02 15:48:26;;;;;;;0.32;0.32;;;;;;;;;;4996199;28;20119;-77
2023/10/02 15:50:54;;;;;;;0.00;0.00;;;;;;;;;;5002053;28;20116;-77
2023/10/02 15:53:24;;;;;;;0.00;0.00;;;;;;;;;;5002322;28;20503;-77
2023/10/02 15:55:52;;;;;;;1.40;1.30;;;;;;;;;;5002113;28;20095;-77
2023/10/02 15:58:19;;;;;;;0.00;0.00;;;;;;;;;;4992677;28;20054;-77